Latest Weather Observations for Ceduna

IDS60801

Issued at 8:01 pm CDT Friday 12 February 2016 (issued every 30 minutes, with the page automatically refreshed every 10 minutes)

About weather observations | Map of weather stations | Latest weather observations for SA | Other Formats
Station Details ID: 018012 Name: CEDUNA AMO Lat: -32.13 Lon: 133.70 Height: 15.3 m
Data from the previous 72 hours. | See also: Recent months at Ceduna
Date/Time
CDT
Temp
°C
App
Temp
°C
Dew
Point
Rel
Hum
%
Delta-T
°C
Wind Press
QNH
hPa
Press
MSL
hPa
Rain
since 9 am
mm
Dir
 
Spd
km/h
Gust
km/h
Spd
kts
Gust
kts
12/08:00pm 22.4 22.4 15.3 64 4.2 SSE 9 13 5 7 1013.0 1012.9 0.0
12/07:30pm 22.8 21.0 15.4 63 4.4 S 19 24 10 13 1013.1 1013.0 0.0
12/07:00pm 23.7 21.5 14.9 57 5.2 S 20 24 11 13 1013.0 1012.9 0.0
12/06:30pm 24.4 22.3 15.1 56 5.6 S 20 24 11 13 1013.0 1012.9 0.0
12/06:00pm 25.4 22.3 14.5 51 6.5 SSW 24 28 13 15 1012.9 1012.8 0.0
12/05:30pm 26.5 23.9 14.9 49 7.0 SSW 22 28 12 15 1012.8 1012.7 0.0
12/05:00pm 26.0 22.3 12.8 44 7.7 S 24 30 13 16 1012.9 1012.8 0.0
12/04:30pm 26.8 23.5 14.9 48 7.2 S 26 33 14 18 1012.8 1012.7 0.0
12/04:00pm 26.0 23.0 16.8 57 5.7 SSW 28 32 15 17 1012.7 1012.6 0.0
12/03:30pm 26.7 23.8 16.0 52 6.6 SSW 26 30 14 16 1013.0 1012.9 0.0
12/03:00pm 27.6 24.3 14.9 45 7.7 SSW 26 33 14 18 1013.2 1013.1 0.0
12/02:30pm 28.0 25.4 16.0 48 7.4 SSW 24 28 13 15 1013.1 1013.0 0.0
12/02:00pm 28.0 25.8 12.0 37 9.3 SW 15 19 8 10 1013.3 1013.2 0.0
12/01:30pm 25.9 24.3 15.0 51 6.6 SSW 17 20 9 11 1013.9 1013.8 0.0
12/01:00pm 25.0 23.8 16.2 58 5.4 SW 17 20 9 11 1014.3 1014.2 0.0
12/12:30pm 24.8 24.0 17.0 62 4.8 SW 17 20 9 11 1014.7 1014.6 0.0
12/12:00pm 24.0 23.5 16.8 64 4.4 SW 15 19 8 10 1015.1 1015.0 0.0
12/11:30am 24.0 24.3 17.0 65 4.3 SW 11 15 6 8 1015.4 1015.3 0.0
12/11:00am 22.9 23.2 16.9 69 3.7 WSW 11 15 6 8 1015.7 1015.6 0.0
12/10:30am 22.6 23.9 15.2 63 4.4 SE 2 7 1 4 1015.7 1015.6 0.0
12/10:00am 21.2 23.4 16.4 74 2.9 CALM 0 0 0 0 1015.9 1015.8 0.0
12/09:30am 19.4 20.1 16.1 81 2.0 E 7 9 4 5 1016.0 1015.9 0.0
12/09:00am 17.8 18.1 16.0 89 1.1 E 9 13 5 7 1016.1 1016.0 0.0
12/08:30am 15.9 16.9 15.3 96 0.3 ESE 4 9 2 5 1016.1 1016.0 0.0
12/08:03am 13.6 14.7 13.4 99 0.1 CALM 0 0 0 0 1015.8 1015.7 0.0
12/08:00am 13.3 14.3 13.1 99 0.1 CALM 0 0 0 0 1015.7 1015.6 0.0
12/07:30am 10.4 10.5 10.1 98 0.2 CALM 0 0 0 0 1015.6 1015.5 0.0
12/07:00am 11.2 11.5 10.9 98 0.2 CALM 0 0 0 0 1015.3 1015.2 0.0
12/06:41am 11.5 11.8 11.0 97 0.3 CALM 0 0 0 0 1015.1 1015.0 0.0
12/06:30am 11.8 12.2 11.3 97 0.3 CALM 0 0 0 0 1015.0 1014.9 0.0
12/06:00am 12.9 13.7 12.6 98 0.2 CALM 0 0 0 0 1014.8 1014.7 0.0
12/05:30am 13.6 13.5 13.4 99 0.1 NE 6 9 3 5 1014.5 1014.4 0.0
12/05:00am 13.5 13.3 13.0 97 0.3 NE 6 7 3 4 1014.7 1014.6 0.0
12/04:51am 13.4 13.1 12.8 96 0.3 NE 6 7 3 4 1014.7 1014.6 0.0
12/04:30am 14.3 14.2 13.8 97 0.3 NE 7 9 4 5 1014.6 1014.5 0.0
12/04:11am 15.3 15.5 14.7 96 0.3 SSE 7 9 4 5 1014.8 1014.7 0.0
12/04:00am 15.9 15.9 15.3 96 0.3 S 9 11 5 6 1014.8 1014.7 0.0
12/03:30am 16.4 15.9 15.8 96 0.4 SSE 13 15 7 8 1015.0 1014.9 0.0
12/03:00am 16.1 15.7 15.3 95 0.5 SSE 11 15 6 8 1015.3 1015.2 0.0
12/02:30am 16.7 17.0 15.9 95 0.5 SSE 9 11 5 6 1015.6 1015.5 0.0
12/02:00am 16.9 16.1 16.1 95 0.5 S 15 19 8 10 1015.8 1015.7 0.0
12/01:30am 17.0 16.2 16.0 94 0.6 S 15 19 8 10 1016.1 1016.0 0.0
12/01:00am 17.2 16.0 16.1 93 0.7 S 17 19 9 10 1016.6 1016.5 0.0
12/12:30am 17.5 16.3 16.2 92 0.8 S 17 20 9 11 1017.0 1016.9 0.0
12/12:16am 17.7 16.2 16.2 91 0.9 S 19 24 10 13 1017.1 1017.0 0.0
12/12:00am 17.9 16.2 16.2 90 1.0 S 20 26 11 14 1017.2 1017.1 0.0
 
Date/Time
CDT
Temp
°C
App
Temp
°C
Dew
Point
Rel
Hum
%
Delta-T
°C
Wind Press
QNH
hPa
Press
MSL
hPa
Rain
since 9 am
mm
Dir
 
Spd
km/h
Gust
km/h
Spd
kts
Gust
kts
11/11:47pm 17.9 16.4 16.2 90 1.0 S 19 28 10 15 1017.5 1017.4 0.0
11/11:30pm 17.9 16.4 16.2 90 1.0 S 19 28 10 15 1017.5 1017.4 0.0
11/11:00pm 18.1 16.3 16.1 88 1.2 S 20 26 11 14 1017.6 1017.5 0.0
11/10:30pm 18.3 16.2 16.3 88 1.2 S 22 28 12 15 1017.5 1017.4 0.0
11/10:22pm 18.3 16.6 16.3 88 1.2 S 20 28 11 15 1017.5 1017.4 0.0
11/10:00pm 18.5 16.5 16.5 88 1.2 S 22 32 12 17 1017.4 1017.3 0.0
11/09:30pm 18.5 16.1 16.5 88 1.2 S 24 32 13 17 1017.2 1017.1 0.0
11/09:00pm 18.6 16.6 16.4 87 1.3 S 22 33 12 18 1016.9 1016.8 0.0
11/08:30pm 18.7 15.4 16.1 85 1.5 S 28 37 15 20 1016.6 1016.5 0.0
11/08:16pm 18.9 15.6 16.1 84 1.7 S 28 35 15 19 1016.4 1016.3 0.0
11/08:00pm 19.1 15.8 16.1 83 1.8 S 28 35 15 19 1016.4 1016.3 0.0
11/07:30pm 19.6 16.2 15.7 78 2.3 S 28 39 15 21 1015.9 1015.8 0.0
11/07:00pm 20.1 16.4 15.9 77 2.5 SSW 30 39 16 21 1015.9 1015.8 0.0
11/06:30pm 20.6 16.9 16.0 75 2.8 SSW 30 37 16 20 1015.5 1015.4 0.0
11/06:00pm 20.8 16.5 16.0 74 2.9 SSW 33 41 18 22 1015.3 1015.2 0.0
11/05:30pm 21.5 17.9 15.3 68 3.7 SSW 28 33 15 18 1015.1 1015.0 0.0
11/05:00pm 21.4 17.3 15.0 67 3.8 SSW 30 37 16 20 1015.3 1015.2 0.0
11/04:30pm 22.0 17.9 14.9 64 4.2 SSW 30 37 16 20 1015.5 1015.4 0.0
11/04:00pm 22.4 18.7 15.0 63 4.4 SSW 28 35 15 19 1015.4 1015.3 0.0
11/03:30pm 22.3 19.3 14.7 62 4.5 S 24 32 13 17 1015.6 1015.5 0.0
11/03:00pm 21.3 17.9 14.7 66 3.9 S 26 35 14 19 1015.9 1015.8 0.0
11/02:30pm 21.2 16.8 14.1 64 4.1 SSW 30 37 16 20 1016.2 1016.1 0.0
11/02:00pm 21.1 16.6 15.0 68 3.6 SSW 32 39 17 21 1016.3 1016.2 0.0
11/01:30pm 20.3 16.4 14.4 69 3.4 SSW 28 37 15 20 1016.6 1016.5 0.0
11/01:00pm 20.8 17.9 15.1 70 3.4 SSW 24 30 13 16 1016.7 1016.6 0.0
11/12:30pm 21.0 18.4 14.9 68 3.6 S 22 32 12 17 1016.7 1016.6 0.0
11/12:00pm 20.7 18.1 14.8 69 3.5 S 22 30 12 16 1016.8 1016.7 0.0
11/11:30am 20.4 18.2 15.0 71 3.2 S 20 30 11 16 1017.1 1017.0 0.0
11/11:00am 20.7 18.8 15.7 73 3.0 SSE 20 26 11 14 1017.4 1017.3 0.0
11/10:30am 19.9 17.7 14.9 73 2.9 S 20 30 11 16 1017.3 1017.2 0.0
11/10:00am 19.7 17.7 15.6 77 2.4 SSE 20 30 11 16 1017.2 1017.1 0.0
11/09:30am 19.4 16.9 15.1 76 2.5 SSE 22 28 12 15 1017.1 1017.0 0.0
11/09:21am 19.0 16.4 14.9 77 2.4 SE 22 30 12 16 1017.1 1017.0 0.0
11/09:00am 18.5 16.5 15.6 83 1.7 SSE 20 28 11 15 1016.9 1016.8 0.0
11/08:30am 17.5 15.5 15.5 88 1.2 SSE 20 26 11 14 1017.0 1016.9 0.0
11/08:00am 17.5 16.0 16.2 92 0.8 SSE 19 24 10 13 1017.0 1016.9 0.0
11/07:30am 17.2 15.5 16.2 94 0.6 SSE 20 28 11 15 1016.8 1016.7 0.0
11/07:00am 17.2 15.6 16.4 95 0.5 SSE 20 28 11 15 1016.4 1016.3 0.0
11/06:30am 16.8 15.6 16.2 96 0.4 SSE 17 20 9 11 1016.1 1016.0 0.0
11/06:20am 16.6 16.1 16.0 96 0.4 SSE 13 17 7 9 1015.9 1015.8 0.0
11/06:00am 16.6 16.1 16.0 96 0.4 SSE 13 17 7 9 1015.6 1015.5 0.0
11/05:30am 16.8 16.0 16.2 96 0.4 S 15 19 8 10 1015.4 1015.3 0.0
11/05:00am 16.4 16.2 15.8 96 0.4 S 11 15 6 8 1015.3 1015.2 0.0
11/04:30am 16.3 16.0 15.5 95 0.5 S 11 13 6 7 1015.1 1015.0 0.0
11/04:00am 16.8 16.3 15.8 94 0.6 S 13 15 7 8 1015.3 1015.2 0.0
11/03:30am 17.0 16.5 15.9 93 0.6 SSE 13 17 7 9 1015.6 1015.5 0.0
11/03:05am 17.4 16.2 16.1 92 0.8 S 17 22 9 12 1015.6 1015.5 0.0
11/03:00am 17.5 16.0 16.2 92 0.8 S 19 24 10 13 1015.6 1015.5 0.0
11/02:30am 17.8 15.7 16.3 91 0.9 S 22 33 12 18 1015.8 1015.7 0.0
11/02:00am 18.0 15.6 16.3 90 1.0 S 24 30 13 16 1015.9 1015.8 0.0
11/01:30am 18.1 16.5 16.4 90 1.0 S 20 26 11 14 1016.0 1015.9 0.0
11/01:00am 18.0 15.6 16.3 90 1.0 S 24 30 13 16 1016.3 1016.2 0.0
11/12:30am 17.9 15.8 16.2 90 1.0 S 22 32 12 17 1016.5 1016.4 0.0
11/12:23am 17.8 15.7 16.1 90 1.0 S 22 28 12 15 1016.5 1016.4 0.0
11/12:00am 17.8 15.2 16.0 89 1.1 S 24 32 13 17 1016.6 1016.5 0.0
 
Date/Time
CDT
Temp
°C
App
Temp
°C
Dew
Point
Rel
Hum
%
Delta-T
°C
Wind Press
QNH
hPa
Press
MSL
hPa
Rain
since 9 am
mm
Dir
 
Spd
km/h
Gust
km/h
Spd
kts
Gust
kts
10/11:51pm 17.9 15.4 16.1 89 1.1 S 24 32 13 17 1016.5 1016.4 0.0
10/11:30pm 17.9 15.4 16.1 89 1.1 S 24 33 13 18 1016.4 1016.3 0.0
10/11:18pm 18.1 15.7 16.3 89 1.1 S 24 32 13 17 1016.4 1016.3 0.0
10/11:02pm 18.0 15.9 16.2 89 1.1 S 22 30 12 16 1016.4 1016.3 0.0
10/11:00pm 17.9 15.7 15.9 88 1.2 S 22 30 12 16 1016.5 1016.4 0.0
10/10:30pm 18.1 15.1 15.9 87 1.3 S 26 33 14 18 1016.3 1016.2 0.0
10/10:00pm 18.3 15.8 16.1 87 1.3 S 24 33 13 18 1016.1 1016.0 0.0
10/09:35pm 18.6 16.3 16.6 88 1.2 S 24 35 13 19 1015.9 1015.8 0.0
10/09:30pm 18.6 16.7 16.8 89 1.1 S 22 32 12 17 1015.8 1015.7 0.0
10/09:00pm 18.7 16.9 16.9 89 1.1 S 22 30 12 16 1015.7 1015.6 0.0
10/08:30pm 19.1 16.4 16.5 85 1.6 S 26 32 14 17 1015.5 1015.4 0.0
10/08:00pm 20.0 16.6 15.8 77 2.5 S 28 39 15 21 1015.0 1014.9 0.0
10/07:30pm 21.0 18.0 14.9 68 3.6 S 24 33 13 18 1014.7 1014.6 0.0
10/07:00pm 22.2 18.7 13.5 57 5.0 S 24 32 13 17 1014.4 1014.3 0.0
10/06:30pm 21.8 18.1 14.9 65 4.1 S 28 39 15 21 1014.4 1014.3 0.0
10/06:00pm 22.8 20.9 16.6 68 3.8 SW 22 28 12 15 1014.2 1014.1 0.0
10/05:30pm 22.5 19.7 17.2 72 3.3 SSW 28 35 15 19 1014.2 1014.1 0.0
10/05:00pm 22.1 19.2 17.0 73 3.1 SW 28 35 15 19 1014.3 1014.2 0.0
10/04:30pm 22.0 19.2 17.2 74 2.9 SSW 28 35 15 19 1014.4 1014.3 0.0
10/04:00pm 21.8 19.0 17.4 76 2.7 SW 28 32 15 17 1014.4 1014.3 0.0
10/03:30pm 22.2 19.3 17.1 73 3.1 SSW 28 35 15 19 1014.6 1014.5 0.0
10/03:00pm 22.0 19.2 17.4 75 2.8 SW 28 33 15 18 1014.8 1014.7 0.0
10/02:30pm 21.9 19.5 17.3 75 2.8 SSW 26 32 14 17 1015.2 1015.1 0.0
10/02:12pm 22.1 19.8 17.7 76 2.7 SW 26 32 14 17 1015.2 1015.1 0.0
10/02:00pm 21.4 19.2 17.0 76 2.7 SSW 24 30 13 16 1015.3 1015.2 0.0
10/01:30pm 20.6 18.5 17.2 81 2.1 SSW 24 32 13 17 1015.6 1015.5 0.0
10/01:00pm 21.0 18.8 17.0 78 2.4 SSW 24 33 13 18 1015.6 1015.5 0.0
10/12:30pm 20.2 18.3 16.6 80 2.2 SSW 22 28 12 15 1015.8 1015.7 0.0
10/12:00pm 20.6 19.7 16.8 79 2.3 SSW 17 26 9 14 1015.9 1015.8 0.0
10/11:30am 20.3 18.8 16.3 78 2.4 SW 19 24 10 13 1016.0 1015.9 0.0
10/11:25am 19.9 18.7 16.2 79 2.2 SW 17 24 9 13 1016.1 1016.0 0.0
10/11:00am 20.3 19.3 16.5 79 2.3 SW 17 22 9 12 1016.0 1015.9 0.0
10/10:54am 20.3 19.2 16.3 78 2.4 SW 17 22 9 12 1016.0 1015.9 0.0
10/10:36am 19.9 19.2 16.3 80 2.2 SW 15 22 8 12 1016.0 1015.9 0.0
10/10:30am 20.3 19.3 16.7 80 2.2 SW 17 22 9 12 1016.1 1016.0 0.0
10/10:13am 19.8 18.6 16.1 79 2.2 SW 17 22 9 12 1016.1 1016.0 0.0
10/10:00am 19.8 19.3 15.9 78 2.3 SW 13 17 7 9 1016.1 1016.0 0.0
10/09:48am 19.5 19.9 16.3 82 1.9 SW 9 17 5 9 1015.9 1015.8 0.0
10/09:35am 19.4 19.7 16.1 81 2.0 SSW 9 17 5 9 1015.8 1015.7 0.0
10/09:30am 19.0 18.9 16.0 83 1.8 SW 11 17 6 9 1015.8 1015.7 0.0
10/09:00am 18.7 19.6 16.1 85 1.5 SSE 6 9 3 5 1015.8 1015.7 0.0
10/08:30am 18.1 18.4 15.9 87 1.3 SSW 9 15 5 8 1016.0 1015.9 0.0
10/08:00am 17.9 18.5 15.7 87 1.3 SSE 7 9 4 5 1015.7 1015.6 0.0
10/07:30am 17.8 18.0 15.8 88 1.2 S 9 13 5 7 1015.5 1015.4 0.0
10/07:00am 17.7 17.6 15.9 89 1.1 S 11 15 6 8 1015.3 1015.2 0.0
10/06:30am 17.6 16.6 15.6 88 1.2 SSE 15 19 8 10 1015.2 1015.1 0.0
10/06:00am 17.4 16.7 15.4 88 1.2 S 13 20 7 11 1015.0 1014.9 0.0
10/05:30am 17.2 17.3 15.4 89 1.1 S 9 13 5 7 1015.0 1014.9 0.0
10/05:00am 17.1 17.2 15.4 90 1.0 S 9 13 5 7 1014.9 1014.8 0.0
10/04:30am 16.8 16.4 15.3 91 0.9 S 11 15 6 8 1015.0 1014.9 0.0
10/04:00am 16.4 16.4 15.3 93 0.6 S 9 13 5 7 1014.9 1014.8 0.0
10/03:30am 14.9 16.1 13.8 93 0.6 CALM 0 0 0 0 1015.2 1015.1 0.0
10/03:04am 14.8 15.9 13.5 92 0.7 CALM 0 0 0 0 1015.3 1015.2 0.0
10/03:00am 14.9 16.0 13.4 91 0.8 CALM 0 0 0 0 1015.4 1015.3 0.0
10/02:38am 15.6 15.5 14.0 90 0.9 S 7 7 4 4 1015.7 1015.6 0.0
10/02:30am 15.9 15.9 14.1 89 1.0 S 7 11 4 6 1015.8 1015.7 0.0
10/02:00am 16.9 15.6 14.7 87 1.3 S 15 20 8 11 1016.1 1016.0 0.0
10/01:30am 17.2 15.6 15.0 87 1.3 S 17 26 9 14 1016.5 1016.4 0.0
10/01:00am 17.4 15.9 15.4 88 1.2 S 17 24 9 13 1016.7 1016.6 0.0
10/12:30am 17.5 16.1 15.5 88 1.2 S 17 24 9 13 1017.0 1016.9 0.0
10/12:00am 17.8 16.1 15.8 88 1.2 S 19 26 10 14 1017.2 1017.1 0.0
 
Date/Time
CDT
Temp
°C
App
Temp
°C
Dew
Point
Rel
Hum
%
Delta-T
°C
Wind Press
QNH
hPa
Press
MSL
hPa
Rain
since 9 am
mm
Dir
 
Spd
km/h
Gust
km/h
Spd
kts
Gust
kts
09/11:30pm 17.6 16.3 15.8 89 1.1 S 17 20 9 11 1017.3 1017.2 0.0
09/11:00pm 17.6 16.7 15.8 89 1.1 S 15 20 8 11 1017.3 1017.2 0.0
09/10:30pm 17.8 16.5 15.8 88 1.2 S 17 20 9 11 1017.3 1017.2 0.0
09/10:00pm 18.2 17.0 16.0 87 1.3 S 17 24 9 13 1017.1 1017.0 0.0
09/09:30pm 18.2 17.4 16.2 88 1.2 S 15 22 8 12 1016.9 1016.8 0.0
09/09:00pm 18.1 16.8 15.9 87 1.3 S 17 24 9 13 1016.7 1016.6 0.0
09/08:30pm 18.4 16.6 16.0 86 1.4 S 20 26 11 14 1016.6 1016.5 0.0
09/08:02pm 18.8 17.3 16.2 85 1.6 S 19 24 10 13 1016.7 1016.6 0.0

Other Formats:

Comma delimited format used in spreadsheet applications
http://www.bom.gov.au/fwo/IDS60801/IDS60801.94653.axf

JavaScript Object Notation format (JSON) in row-major order
http://www.bom.gov.au/fwo/IDS60801/IDS60801.94653.json